createdAt,value
2022-11-15T00:03:19.116Z,5.54
2022-11-15T00:08:19.012Z,5.42
2022-11-15T00:13:19.085Z,5.49
2022-11-15T00:18:18.864Z,5.46
2022-11-15T00:23:19.051Z,5.44
2022-11-15T00:28:19.196Z,5.50
2022-11-15T00:33:18.857Z,5.58
2022-11-15T00:38:18.893Z,5.61
2022-11-15T00:43:18.873Z,5.73
2022-11-15T00:48:19.138Z,5.59
2022-11-15T00:53:18.951Z,5.71
2022-11-15T00:58:18.907Z,5.62
2022-11-15T01:03:18.945Z,5.57
2022-11-15T01:08:18.871Z,5.62
2022-11-15T01:13:18.865Z,5.79
2022-11-15T01:18:18.909Z,5.86
2022-11-15T01:28:18.880Z,5.76
2022-11-15T01:38:18.896Z,5.77
2022-11-15T01:43:18.869Z,5.66
2022-11-15T01:48:18.912Z,5.85
2022-11-15T01:53:18.897Z,5.79
2022-11-15T01:58:19.243Z,5.70
2022-11-15T02:03:19.075Z,5.77
2022-11-15T02:08:19.214Z,5.80
2022-11-15T02:13:19.042Z,5.77
2022-11-15T02:18:18.909Z,5.87
2022-11-15T02:23:19.005Z,5.94
2022-11-15T02:28:19.217Z,5.90
2022-11-15T02:33:18.983Z,5.80
2022-11-15T02:38:18.921Z,5.81
2022-11-15T02:43:18.956Z,5.68
2022-11-15T02:48:19.177Z,5.75
2022-11-15T02:53:18.937Z,5.74
2022-11-15T02:58:19.035Z,5.63
2022-11-15T03:03:18.908Z,5.86
2022-11-15T03:08:18.950Z,5.84
2022-11-15T03:13:19.150Z,5.92
2022-11-15T03:18:19.000Z,5.97
2022-11-15T03:23:19.131Z,5.80
2022-11-15T03:28:18.918Z,5.93
2022-11-15T03:33:18.957Z,5.90
2022-11-15T03:38:19.145Z,5.66
2022-11-15T03:43:18.954Z,5.60
2022-11-15T03:48:19.217Z,5.64
2022-11-15T03:53:18.924Z,5.81
2022-11-15T03:58:18.948Z,5.79
2022-11-15T04:03:18.955Z,5.91
2022-11-15T04:08:18.957Z,5.81
2022-11-15T04:13:18.923Z,5.84
2022-11-15T04:18:18.958Z,5.62
2022-11-15T04:23:19.110Z,5.79
2022-11-15T04:28:19.102Z,5.75
2022-11-15T04:33:19.234Z,5.81
2022-11-15T04:38:18.972Z,5.85
2022-11-15T04:43:18.960Z,5.82
2022-11-15T04:48:19.045Z,5.83
2022-11-15T04:53:19.163Z,5.80
2022-11-15T04:58:18.986Z,5.75
2022-11-15T05:03:19.144Z,5.82
2022-11-15T05:08:18.986Z,5.88
2022-11-15T05:13:19.121Z,5.89
2022-11-15T05:18:23.350Z,5.65
2022-11-15T05:23:19.031Z,5.73
2022-11-15T05:28:18.978Z,5.77
2022-11-15T05:33:19.038Z,5.81
2022-11-15T05:38:19.168Z,5.98
2022-11-15T05:48:19.179Z,6.09
2022-11-15T05:53:18.950Z,6.03
2022-11-15T05:58:19.144Z,6.02
2022-11-15T06:03:18.968Z,6.11
2022-11-15T06:08:19.130Z,6.09
2022-11-15T06:13:19.253Z,6.07
2022-11-15T06:18:18.986Z,6.12
2022-11-15T06:23:19.226Z,6.09
2022-11-15T06:28:19.050Z,6.02
2022-11-15T06:33:19.183Z,5.92
2022-11-15T06:38:19.274Z,6.17
2022-11-15T06:43:19.323Z,6.13
2022-11-15T06:48:19.293Z,6.19
2022-11-15T06:53:19.125Z,6.35
2022-11-15T06:58:19.298Z,6.31
2022-11-15T07:03:19.000Z,6.23
2022-11-15T07:08:19.037Z,6.31
2022-11-15T07:13:18.987Z,6.27
2022-11-15T07:18:19.027Z,6.36
2022-11-15T07:23:19.366Z,6.37
2022-11-15T07:28:18.996Z,6.43
2022-11-15T07:33:19.025Z,6.51
2022-11-15T07:38:19.054Z,6.64
2022-11-15T07:43:19.040Z,6.57
2022-11-15T07:48:19.057Z,6.59
2022-11-15T07:53:19.064Z,6.72
2022-11-15T08:03:19.213Z,6.73
2022-11-15T08:08:19.377Z,6.76
2022-11-15T08:13:19.345Z,6.73
2022-11-15T08:18:19.145Z,6.92
2022-11-15T08:23:19.122Z,7.09
2022-11-15T08:28:19.311Z,7.16
2022-11-15T08:33:19.087Z,7.10
2022-11-15T08:38:19.260Z,7.08
2022-11-15T08:43:19.078Z,7.12
2022-11-15T08:48:19.259Z,7.13
2022-11-15T08:53:19.396Z,7.19
2022-11-15T08:58:19.182Z,7.12
2022-11-15T09:03:19.074Z,7.18
2022-11-15T09:08:46.180Z,7.27
2022-11-15T09:13:19.334Z,7.22
2022-11-15T09:18:20.971Z,7.33
2022-11-15T09:23:19.297Z,7.34
2022-11-15T09:28:19.089Z,7.27
2022-11-15T09:33:19.651Z,7.37
2022-11-15T09:38:19.080Z,7.47
2022-11-15T09:43:19.134Z,7.51
2022-11-15T09:53:28.691Z,7.62
2022-11-15T09:58:19.082Z,7.74
2022-11-15T10:03:19.101Z,7.77
2022-11-15T10:08:19.186Z,7.82
2022-11-15T10:13:19.133Z,7.74
2022-11-15T10:18:19.113Z,7.76
2022-11-15T10:23:19.439Z,7.77
2022-11-15T10:28:19.216Z,7.87
2022-11-15T10:33:19.386Z,7.78
2022-11-15T10:38:19.102Z,7.75
2022-11-15T10:43:19.080Z,7.80
2022-11-15T10:48:19.209Z,7.87
2022-11-15T10:53:19.325Z,7.80
2022-11-15T10:58:19.128Z,7.68
2022-11-15T11:03:19.119Z,7.82
2022-11-15T11:08:19.147Z,7.90
2022-11-15T11:18:19.389Z,8.14
2022-11-15T11:23:19.256Z,8.13
2022-11-15T11:28:19.140Z,8.07
2022-11-15T11:33:19.207Z,8.14
2022-11-15T11:38:19.347Z,8.09
2022-11-15T11:43:19.151Z,8.20
2022-11-15T11:48:19.344Z,8.22
2022-11-15T11:53:19.110Z,8.24
2022-11-15T11:58:19.303Z,8.21
2022-11-15T12:03:19.608Z,8.14
2022-11-15T12:08:19.260Z,8.22
2022-11-15T12:13:19.385Z,8.20
2022-11-15T12:18:19.253Z,8.17
2022-11-15T12:23:19.392Z,8.18
2022-11-15T12:28:19.168Z,8.12
2022-11-15T12:33:19.159Z,8.09
2022-11-15T12:38:19.153Z,8.21
2022-11-15T12:43:19.129Z,8.22
2022-11-15T12:48:19.169Z,8.29
2022-11-15T12:53:19.312Z,8.17
2022-11-15T12:58:19.357Z,8.04
2022-11-15T13:03:19.242Z,8.13
2022-11-15T13:08:19.169Z,7.98
2022-11-15T13:13:19.219Z,7.81
2022-11-15T13:18:19.387Z,7.67
2022-11-15T13:23:19.151Z,7.64
2022-11-15T13:28:19.323Z,7.69
2022-11-15T13:38:19.174Z,7.67
2022-11-15T13:43:19.433Z,7.71
2022-11-15T13:48:19.186Z,7.76
2022-11-15T13:53:19.427Z,7.66
2022-11-15T13:58:24.011Z,7.60
2022-11-15T14:03:19.253Z,7.57
2022-11-15T14:08:19.199Z,7.73
2022-11-15T14:13:19.183Z,7.68
2022-11-15T14:18:19.482Z,7.54
2022-11-15T14:33:19.313Z,7.59
2022-11-15T14:38:19.197Z,7.48
2022-11-15T14:43:19.274Z,7.59
2022-11-15T14:48:19.402Z,7.69
2022-11-15T14:53:19.210Z,7.65
2022-11-15T14:58:19.513Z,7.56
2022-11-15T15:03:19.521Z,7.63
2022-11-15T15:08:19.308Z,7.65
2022-11-15T15:13:19.213Z,7.63
2022-11-15T15:18:19.276Z,7.62
2022-11-15T15:23:19.275Z,7.31
2022-11-15T15:28:19.283Z,7.38
2022-11-15T15:38:19.250Z,7.30
2022-11-15T15:43:19.402Z,7.41
2022-11-15T15:48:19.203Z,7.32
2022-11-15T15:53:19.379Z,7.34
2022-11-15T15:58:19.520Z,7.21
2022-11-15T16:03:19.352Z,7.25
2022-11-15T16:08:19.460Z,7.32
2022-11-15T16:13:19.217Z,7.36
2022-11-15T16:18:19.463Z,7.28
2022-11-15T16:23:19.232Z,7.21
2022-11-15T16:28:19.546Z,7.24
2022-11-15T16:33:20.092Z,7.33
2022-11-15T16:38:19.220Z,7.39
2022-11-15T16:43:19.539Z,7.45
2022-11-15T16:48:20.072Z,7.26
2022-11-15T16:53:19.621Z,7.24
2022-11-15T16:58:19.235Z,7.29
2022-11-15T17:03:19.654Z,7.15
2022-11-15T17:08:19.271Z,7.23
2022-11-15T17:13:19.281Z,7.26
2022-11-15T17:18:19.378Z,7.25
2022-11-15T17:23:19.265Z,7.15
2022-11-15T17:28:19.554Z,7.27
2022-11-15T17:33:19.598Z,7.15
2022-11-15T17:38:20.763Z,7.16
2022-11-15T17:43:19.375Z,7.19
2022-11-15T17:48:19.278Z,7.07
2022-11-15T17:53:19.290Z,7.16
2022-11-15T17:58:19.281Z,7.18
2022-11-15T18:03:19.278Z,7.16
2022-11-15T18:08:19.352Z,7.19
2022-11-15T18:13:19.580Z,7.38
2022-11-15T18:18:19.368Z,7.41
2022-11-15T18:23:19.787Z,7.38
2022-11-15T18:28:19.297Z,7.23
2022-11-15T18:33:19.680Z,7.17
2022-11-15T18:38:19.444Z,7.19
2022-11-15T18:43:19.732Z,7.18
2022-11-15T18:48:20.020Z,7.23
2022-11-15T18:53:19.413Z,7.24
2022-11-15T18:58:19.833Z,7.21
2022-11-15T19:03:23.513Z,7.19
2022-11-15T19:08:19.815Z,7.28
2022-11-15T19:13:19.578Z,7.43
2022-11-15T19:18:19.769Z,7.56
2022-11-15T19:23:19.579Z,7.47
2022-11-15T19:28:19.624Z,7.41
2022-11-15T19:33:21.655Z,7.44
2022-11-15T19:38:19.714Z,7.32
2022-11-15T19:43:19.925Z,7.22
2022-11-15T19:48:19.494Z,7.17
2022-11-15T19:53:19.596Z,7.15
2022-11-15T19:58:19.485Z,7.19
2022-11-15T20:03:19.720Z,7.15
2022-11-15T20:08:19.373Z,7.22
2022-11-15T20:13:19.507Z,7.23
2022-11-15T20:18:19.599Z,7.40
2022-11-15T20:23:19.518Z,7.41
2022-11-15T20:28:19.354Z,7.45
2022-11-15T20:33:19.415Z,7.32
2022-11-15T20:38:19.716Z,7.44
2022-11-15T20:43:19.683Z,7.38
2022-11-15T20:53:19.420Z,7.37
2022-11-15T20:58:19.536Z,7.28
2022-11-15T21:03:19.693Z,7.23
2022-11-15T21:08:19.473Z,7.20
2022-11-15T21:13:19.665Z,7.32
2022-11-15T21:18:19.356Z,7.27
2022-11-15T21:23:19.819Z,7.21
2022-11-15T21:28:19.414Z,7.42
2022-11-15T21:33:19.602Z,7.43
2022-11-15T21:38:19.363Z,7.44
2022-11-15T21:43:19.369Z,7.54
2022-11-15T21:48:19.342Z,7.56
2022-11-15T21:53:19.536Z,7.36
2022-11-15T21:58:19.351Z,7.56
2022-11-15T22:03:19.490Z,7.58
2022-11-15T22:08:19.384Z,7.56
2022-11-15T22:13:19.483Z,7.48
2022-11-15T22:18:23.607Z,7.45
2022-11-15T22:23:19.471Z,7.44
2022-11-15T22:28:19.357Z,7.41
2022-11-15T22:33:19.406Z,7.42
2022-11-15T22:38:19.629Z,7.46
2022-11-15T22:43:19.403Z,7.42
2022-11-15T22:48:19.569Z,7.52
2022-11-15T22:53:19.673Z,7.56
2022-11-15T22:58:19.362Z,7.52
2022-11-15T23:03:19.603Z,7.57
2022-11-15T23:08:19.427Z,7.58
2022-11-15T23:13:19.411Z,7.55
2022-11-15T23:18:19.387Z,7.57
2022-11-15T23:23:19.433Z,7.48
2022-11-15T23:28:19.720Z,7.42
2022-11-15T23:33:19.555Z,7.45
2022-11-15T23:38:19.715Z,7.50
2022-11-15T23:43:19.388Z,7.57
2022-11-15T23:53:19.498Z,7.54
2022-11-15T23:58:19.603Z,7.52
